Terminal Aerodrome Forecast
Issued by NWS Greer, SC

Home | Current Version | Previous Version | Text Only | Print | Product List | Glossary On
Versions: 1 2 3 4 5 6 7 8 9 10 11 12 13 14 15 16 17 18 19 20 21
000
FTUS42 KGSP 281728
TAFCLT
TAF
KCLT 281728Z 2818/2918 10004KT P6SM FEW060 FEW250
     FM282000 15007KT P6SM FEW070 FEW250
     FM290300 17004KT P6SM SCT250=

USA.gov is the U.S. government's official web portal to all federal, state and local government web resources and services.